Time;durP1;ratioP1;P1;durP2;ratioP2;P2;SDS_P1;SDS_P2;PMS_P1;PMS_P2;Temp;Humidity;BMP_temperature;BMP_pressure;BME280_temperature;BME280_humidity;BME280_pressure;Samples;Min_cycle;Max_cycle;Signal;HPM_P1;HPM_P2
2022/09/03 00:00:36;;;;;;;3.05;1.73;;;;;;;;;;6183954;23;20231;-76
2022/09/03 00:03:01;;;;;;;;;;;;;;;;;;6134507;23;20020;-76
2022/09/03 00:05:59;;;;;;;3.25;1.35;;;;;;;;;;6158212;23;19909;-77
2022/09/03 00:08:31;;;;;;;3.20;1.50;;;;;;;;;;6109667;23;20021;-76
2022/09/03 00:11:10;;;;;;;4.95;1.50;;;;;;;;;;6184506;23;20009;-76
2022/09/03 00:13:41;;;;;;;4.13;1.40;;;;;;;;;;6184524;23;20016;-77
2022/09/03 00:16:09;;;;;;;4.28;1.42;;;;;;;;;;6158504;23;20068;-76
2022/09/03 00:18:37;;;;;;;2.67;1.50;;;;;;;;;;6157965;23;20008;-77
2022/09/03 00:21:07;;;;;;;2.65;1.40;;;;;;;;;;6134144;23;20019;-77
2022/09/03 00:23:33;;;;;;;3.38;1.45;;;;;;;;;;6158049;23;20016;-77
2022/09/03 00:26:07;;;;;;;3.00;1.70;;;;;;;;;;6133551;23;20106;-75
2022/09/03 00:28:35;;;;;;;6.38;1.60;;;;;;;;;;6158044;23;20376;-76
2022/09/03 00:31:20;;;;;;;2.65;1.70;;;;;;;;;;6184645;23;20092;-76
2022/09/03 00:33:45;;;;;;;7.38;1.70;;;;;;;;;;6184601;23;20013;-76
2022/09/03 00:36:11;;;;;;;;;;;;;;;;;;6158892;23;20333;-77
2022/09/03 00:38:37;;;;;;;3.40;1.55;;;;;;;;;;6158104;23;19935;-75
2022/09/03 00:41:05;;;;;;;5.13;1.45;;;;;;;;;;6133367;23;20428;-76
2022/09/03 00:43:37;;;;;;;6.05;1.80;;;;;;;;;;6158372;23;20017;-76
2022/09/03 00:46:04;;;;;;;3.38;1.50;;;;;;;;;;6184085;23;20028;-76
2022/09/03 00:48:31;;;;;;;4.57;1.50;;;;;;;;;;6181928;23;20067;-77
2022/09/03 00:51:16;;;;;;;5.20;1.90;;;;;;;;;;6157881;23;20020;-76
2022/09/03 00:53:51;;;;;;;5.07;1.60;;;;;;;;;;6184261;23;20017;-77
2022/09/03 00:56:17;;;;;;;4.45;1.90;;;;;;;;;;6132838;23;20017;-77
2022/09/03 00:58:42;;;;;;;;;;;;;;;;;;6186309;23;20044;-76
2022/09/03 01:01:10;;;;;;;5.28;1.70;;;;;;;;;;6185242;23;19915;-76
2022/09/03 01:04:02;;;;;;;2.92;1.58;;;;;;;;;;6186100;23;20033;-77
2022/09/03 01:06:31;;;;;;;4.90;1.60;;;;;;;;;;6156102;23;20017;-76
2022/09/03 01:09:30;;;;;;;4.43;1.90;;;;;;;;;;6159847;23;20015;-76
2022/09/03 01:11:59;;;;;;;6.43;2.00;;;;;;;;;;6111467;23;20016;-76
2022/09/03 01:14:34;;;;;;;5.63;2.03;;;;;;;;;;6159721;23;20389;-77
2022/09/03 01:17:15;;;;;;;4.25;2.00;;;;;;;;;;6134697;23;20441;-77
2022/09/03 01:19:50;;;;;;;10.38;2.30;;;;;;;;;;6159298;23;20036;-77
2022/09/03 01:22:37;;;;;;;9.27;2.00;;;;;;;;;;6159141;23;20083;-76
2022/09/03 01:25:14;;;;;;;4.82;2.22;;;;;;;;;;6159325;23;20020;-77
2022/09/03 01:27:42;;;;;;;2.95;1.70;;;;;;;;;;6159059;23;20024;-77
2022/09/03 01:30:17;;;;;;;7.63;2.10;;;;;;;;;;6185307;23;20092;-76
2022/09/03 01:32:45;;;;;;;5.95;1.83;;;;;;;;;;6161089;23;20015;-76
2022/09/03 01:35:32;;;;;;;10.32;1.90;;;;;;;;;;6184110;23;19997;-77
2022/09/03 01:38:00;;;;;;;4.63;1.95;;;;;;;;;;6158847;23;20009;-77
2022/09/03 01:40:46;;;;;;;5.15;2.05;;;;;;;;;;6185652;23;20001;-76
2022/09/03 01:43:34;;;;;;;4.70;2.10;;;;;;;;;;6169689;23;20020;-76
2022/09/03 01:46:06;;;;;;;5.97;2.25;;;;;;;;;;6159464;23;20307;-76
2022/09/03 01:48:43;;;;;;;5.40;2.17;;;;;;;;;;6158823;23;20087;-77
2022/09/03 01:51:21;;;;;;;5.57;2.28;;;;;;;;;;6185329;23;20676;-77
2022/09/03 01:54:00;;;;;;;11.75;2.80;;;;;;;;;;6134335;23;20095;-76
2022/09/03 01:56:46;;;;;;;5.90;2.20;;;;;;;;;;6185359;23;20456;-76
2022/09/03 01:59:23;;;;;;;3.00;2.03;;;;;;;;;;6113703;23;20037;-77
2022/09/03 02:01:48;;;;;;;;;;;;;;;;;;6184284;23;20009;-76
2022/09/03 02:04:18;;;;;;;5.43;2.40;;;;;;;;;;6183727;23;19911;-77
2022/09/03 02:06:45;;;;;;;4.15;2.80;;;;;;;;;;6158880;23;20012;-76
2022/09/03 02:09:10;;;;;;;4.32;2.20;;;;;;;;;;6133534;23;20031;-76
2022/09/03 02:11:36;;;;;;;;;;;;;;;;;;6159534;23;20040;-77
2022/09/03 02:14:03;;;;;;;7.15;2.38;;;;;;;;;;6185330;23;19931;-76
2022/09/03 02:16:30;;;;;;;5.47;2.45;;;;;;;;;;6159037;23;20009;-76
2022/09/03 02:18:57;;;;;;;4.55;2.17;;;;;;;;;;6158669;23;20033;-77
2022/09/03 02:21:23;;;;;;;2.97;2.10;;;;;;;;;;6134364;23;20013;-77
2022/09/03 02:23:48;;;;;;;;;;;;;;;;;;6134563;23;20437;-77
2022/09/03 02:26:15;;;;;;;3.78;2.25;;;;;;;;;;6158701;23;19983;-77
2022/09/03 02:28:40;;;;;;;4.57;2.15;;;;;;;;;;6184410;23;20031;-77
2022/09/03 02:31:06;;;;;;;;;;;;;;;;;;6185476;23;20092;-77
2022/09/03 02:33:34;;;;;;;11.35;8.10;;;;;;;;;;6184871;23;19904;-77
2022/09/03 02:36:00;;;;;;;4.88;2.78;;;;;;;;;;6158640;23;20441;-77
2022/09/03 02:38:25;;;;;;;;;;;;;;;;;;6158781;23;20083;-77
2022/09/03 02:40:53;;;;;;;3.20;2.20;;;;;;;;;;6183536;23;20039;-77
2022/09/03 02:43:30;;;;;;;4.35;2.10;;;;;;;;;;6184603;23;20554;-77
2022/09/03 02:45:57;;;;;;;4.38;2.30;;;;;;;;;;6133870;23;20445;-78
2022/09/03 02:48:22;;;;;;;3.17;2.10;;;;;;;;;;6184176;23;20100;-77
2022/09/03 02:50:48;;;;;;;6.85;2.22;;;;;;;;;;6158754;23;20040;-77
2022/09/03 02:53:13;;;;;;;;;;;;;;;;;;6134512;23;20080;-76
2022/09/03 02:55:39;;;;;;;4.15;2.30;;;;;;;;;;6184842;23;20295;-76
2022/09/03 02:58:05;;;;;;;;;;;;;;;;;;6158502;23;20510;-76
2022/09/03 03:00:31;;;;;;;4.20;2.20;;;;;;;;;;6184357;23;19940;-76
2022/09/03 03:02:57;;;;;;;5.57;2.30;;;;;;;;;;6184403;23;20103;-76
2022/09/03 03:05:22;;;;;;;;;;;;;;;;;;6184888;23;20379;-76
2022/09/03 03:07:48;;;;;;;4.55;2.10;;;;;;;;;;6184630;23;19996;-76
2022/09/03 03:10:13;;;;;;;4.72;2.30;;;;;;;;;;6184306;23;20064;-77
2022/09/03 03:12:39;;;;;;;6.70;2.35;;;;;;;;;;6158436;23;19997;-76
2022/09/03 03:15:05;;;;;;;4.57;2.42;;;;;;;;;;6184747;23;20044;-77
2022/09/03 03:17:30;;;;;;;5.18;2.53;;;;;;;;;;6158148;23;20314;-77
2022/09/03 03:19:55;;;;;;;;;;;;;;;;;;6158953;23;20099;-76
2022/09/03 03:22:21;;;;;;;7.40;3.30;;;;;;;;;;6157882;23;20248;-76
2022/09/03 03:24:49;;;;;;;3.83;2.03;;;;;;;;;;6157958;23;20020;-76
2022/09/03 03:27:15;;;;;;;4.07;2.50;;;;;;;;;;6158363;23;20028;-77
2022/09/03 03:29:40;;;;;;;5.10;2.58;;;;;;;;;;6157871;23;20013;-76
2022/09/03 03:32:06;;;;;;;8.63;2.50;;;;;;;;;;6157447;23;20071;-77
2022/09/03 03:34:31;;;;;;;;;;;;;;;;;;6158132;23;20020;-76
2022/09/03 03:36:56;;;;;;;5.30;2.40;;;;;;;;;;6157766;23;19904;-76
2022/09/03 03:39:22;;;;;;;;;;;;;;;;;;6158338;23;20035;-76
2022/09/03 03:41:47;;;;;;;4.05;2.53;;;;;;;;;;6184378;23;19908;-76
2022/09/03 03:44:14;;;;;;;;;;;;;;;;;;6133880;23;20021;-77
2022/09/03 03:46:39;;;;;;;7.55;3.83;;;;;;;;;;6184395;23;19904;-76
2022/09/03 03:49:05;;;;;;;6.40;2.85;;;;;;;;;;6133642;23;20778;-77
2022/09/03 03:51:31;;;;;;;6.15;3.20;;;;;;;;;;6157945;23;20313;-76
2022/09/03 03:53:57;;;;;;;;;;;;;;;;;;6158543;23;20013;-76
2022/09/03 03:56:22;;;;;;;4.22;2.58;;;;;;;;;;6183460;23;19918;-76
2022/09/03 03:58:48;;;;;;;;;;;;;;;;;;6133986;23;20017;-76
2022/09/03 04:01:14;;;;;;;5.20;2.63;;;;;;;;;;6157796;23;19904;-77
2022/09/03 04:03:40;;;;;;;6.07;2.78;;;;;;;;;;6157920;23;20100;-76
2022/09/03 04:06:06;;;;;;;5.28;2.30;;;;;;;;;;6157958;23;20033;-76
2022/09/03 04:08:35;;;;;;;4.05;2.40;;;;;;;;;;6157677;23;20475;-76
2022/09/03 04:11:01;;;;;;;5.30;2.35;;;;;;;;;;6157588;23;20000;-76
2022/09/03 04:13:27;;;;;;;;;;;;;;;;;;6158494;23;20082;-76
2022/09/03 04:15:58;;;;;;;6.97;2.60;;;;;;;;;;6182363;23;20062;-76
2022/09/03 04:18:24;;;;;;;7.85;2.55;;;;;;;;;;6157799;23;20347;-76
2022/09/03 04:20:49;;;;;;;;;;;;;;;;;;6158020;23;20076;-76
2022/09/03 04:23:15;;;;;;;5.95;2.47;;;;;;;;;;6157121;23;19908;-77
2022/09/03 04:25:41;;;;;;;7.00;2.92;;;;;;;;;;6158052;23;20001;-75
2022/09/03 04:28:06;;;;;;;;;;;;;;;;;;6184182;23;20041;-76
2022/09/03 04:30:31;;;;;;;13.02;3.30;;;;;;;;;;6182137;23;20300;-76
2022/09/03 04:32:58;;;;;;;;;;;;;;;;;;6183833;23;20039;-76
2022/09/03 04:35:24;;;;;;;8.45;3.47;;;;;;;;;;6157365;23;19943;-78
2022/09/03 04:37:50;;;;;;;11.85;3.15;;;;;;;;;;6183304;23;20095;-77
2022/09/03 04:40:15;;;;;;;;;;;;;;;;;;6158164;23;20056;-76
2022/09/03 04:42:41;;;;;;;10.18;3.50;;;;;;;;;;6183490;23;20336;-77
2022/09/03 04:45:06;;;;;;;;;;;;;;;;;;6158090;23;20384;-77
2022/09/03 04:47:31;;;;;;;7.97;2.67;;;;;;;;;;6182491;23;19931;-77
2022/09/03 04:49:57;;;;;;;5.20;2.40;;;;;;;;;;6157512;23;20012;-77
2022/09/03 04:52:23;;;;;;;5.72;2.45;;;;;;;;;;6132540;23;20062;-77
2022/09/03 04:54:48;;;;;;;9.57;4.68;;;;;;;;;;6133201;23;20418;-77
2022/09/03 04:57:14;;;;;;;14.52;9.68;;;;;;;;;;6183638;23;20017;-76
2022/09/03 04:59:40;;;;;;;6.72;2.70;;;;;;;;;;6157598;23;20013;-76
2022/09/03 05:02:05;;;;;;;;;;;;;;;;;;6183675;23;20009;-75
2022/09/03 05:04:30;;;;;;;4.43;2.20;;;;;;;;;;6183775;23;19987;-76
2022/09/03 05:06:56;;;;;;;6.50;2.33;;;;;;;;;;6183883;23;20096;-77
2022/09/03 05:09:21;;;;;;;6.35;2.10;;;;;;;;;;6157734;23;20043;-77
2022/09/03 05:11:47;;;;;;;;;;;;;;;;;;6157807;23;20009;-77
2022/09/03 05:14:12;;;;;;;4.47;1.90;;;;;;;;;;6184168;23;19914;-78
2022/09/03 05:16:38;;;;;;;;;;;;;;;;;;6133588;23;20013;-78
2022/09/03 05:19:04;;;;;;;3.72;1.98;;;;;;;;;;6183787;23;19954;-77
2022/09/03 05:21:30;;;;;;;5.95;2.22;;;;;;;;;;6183743;23;20085;-76
2022/09/03 05:23:55;;;;;;;;;;;;;;;;;;6158384;23;20042;-78
2022/09/03 05:26:25;;;;;;;5.45;1.88;;;;;;;;;;6184215;23;19911;-77
2022/09/03 05:28:54;;;;;;;4.88;2.55;;;;;;;;;;6133420;23;20790;-77
2022/09/03 05:31:20;;;;;;;4.00;1.95;;;;;;;;;;6157923;23;20016;-76
2022/09/03 05:33:45;;;;;;;;;;;;;;;;;;6157775;23;20417;-77
2022/09/03 05:36:12;;;;;;;4.53;2.13;;;;;;;;;;6157408;23;19908;-76
2022/09/03 05:38:38;;;;;;;7.30;2.38;;;;;;;;;;6183731;23;20028;-77
2022/09/03 05:41:03;;;;;;;;;;;;;;;;;;6158689;23;20028;-79
2022/09/03 05:43:29;;;;;;;3.42;1.55;;;;;;;;;;6183180;23;20252;-81
2022/09/03 05:45:55;;;;;;;;;;;;;;;;;;6185841;23;20087;-77
2022/09/03 05:48:20;;;;;;;7.47;2.00;;;;;;;;;;6185086;23;20339;-77
2022/09/03 05:50:45;;;;;;;;;;;;;;;;;;6135448;23;20008;-77
2022/09/03 05:53:11;;;;;;;5.07;2.00;;;;;;;;;;6185522;23;19915;-78
2022/09/03 05:55:36;;;;;;;4.82;1.80;;;;;;;;;;6160053;23;20314;-76
2022/09/03 05:58:02;;;;;;;;;;;;;;;;;;6185893;23;20017;-76
2022/09/03 06:00:27;;;;;;;6.43;2.22;;;;;;;;;;6185365;23;19910;-77
2022/09/03 06:02:53;;;;;;;7.97;3.55;;;;;;;;;;6135504;23;20028;-79
2022/09/03 06:05:18;;;;;;;;;;;;;;;;;;6159646;23;20001;-82
2022/09/03 06:07:47;;;;;;;3.67;1.70;;;;;;;;;;6184471;23;20383;-77
2022/09/03 06:10:14;;;;;;;4.40;1.70;;;;;;;;;;6185432;23;20008;-78
2022/09/03 06:12:40;;;;;;;5.28;2.20;;;;;;;;;;6186324;23;20059;-81
2022/09/03 06:15:06;;;;;;;;;;;;;;;;;;6159710;23;20001;-77
2022/09/03 06:17:31;;;;;;;8.60;2.30;;;;;;;;;;6185645;23;19908;-77
2022/09/03 06:19:56;;;;;;;3.85;1.75;;;;;;;;;;6159577;23;20001;-80
2022/09/03 06:22:24;;;;;;;;;;;;;;;;;;6159772;23;20048;-76
2022/09/03 06:24:49;;;;;;;4.95;2.22;;;;;;;;;;6159393;23;19911;-76
2022/09/03 06:27:16;;;;;;;;;;;;;;;;;;6160256;23;20008;-80
2022/09/03 06:29:42;;;;;;;2.45;1.45;;;;;;;;;;6184616;23;20339;-76
2022/09/03 06:32:08;;;;;;;4.80;1.77;;;;;;;;;;6185167;23;20009;-80
2022/09/03 06:34:33;;;;;;;;;;;;;;;;;;6134520;23;20340;-76
2022/09/03 06:36:59;;;;;;;4.00;1.65;;;;;;;;;;6185881;23;19908;-77
2022/09/03 06:39:25;;;;;;;5.93;1.90;;;;;;;;;;6158947;23;20008;-78
2022/09/03 06:41:52;;;;;;;4.85;2.00;;;;;;;;;;6159251;23;20023;-77
2022/09/03 06:44:25;;;;;;;4.38;1.98;;;;;;;;;;6135261;23;20012;-76
2022/09/03 06:46:52;;;;;;;;;;;;;;;;;;6159129;23;20345;-78
2022/09/03 06:49:18;;;;;;;2.83;1.50;;;;;;;;;;6185068;23;19908;-79
2022/09/03 06:51:44;;;;;;;4.72;1.50;;;;;;;;;;6159102;23;20445;-78
2022/09/03 06:54:09;;;;;;;;;;;;;;;;;;6185684;23;20001;-78
2022/09/03 06:56:44;;;;;;;5.93;1.50;;;;;;;;;;6185193;23;20015;-78
2022/09/03 06:59:11;;;;;;;3.13;1.20;;;;;;;;;;6185306;23;20013;-78
2022/09/03 07:01:39;;;;;;;1.50;0.95;;;;;;;;;;6160974;23;20340;-81
2022/09/03 07:04:05;;;;;;;8.38;1.65;;;;;;;;;;6159856;23;20036;-78
2022/09/03 07:06:31;;;;;;;;;;;;;;;;;;6185885;23;19997;-78
2022/09/03 07:08:59;;;;;;;5.25;1.60;;;;;;;;;;6184733;23;20391;-76
2022/09/03 07:11:26;;;;;;;4.28;1.55;;;;;;;;;;6159565;23;19997;-76
2022/09/03 07:13:52;;;;;;;3.72;1.55;;;;;;;;;;6134174;23;20016;-75
2022/09/03 07:16:21;;;;;;;5.57;1.40;;;;;;;;;;6184917;23;20652;-75
2022/09/03 07:18:47;;;;;;;4.25;1.40;;;;;;;;;;6158405;23;20020;-75
2022/09/03 07:21:12;;;;;;;;;;;;;;;;;;6184071;23;20441;-76
2022/09/03 07:23:38;;;;;;;5.32;1.40;;;;;;;;;;6185110;23;19908;-75
2022/09/03 07:26:03;;;;;;;;;;;;;;;;;;6160461;23;20008;-75
2022/09/03 07:28:29;;;;;;;4.63;1.50;;;;;;;;;;6185343;23;19916;-74
2022/09/03 07:30:54;;;;;;;;;;;;;;;;;;6159031;23;20024;-75
2022/09/03 07:33:20;;;;;;;3.70;1.40;;;;;;;;;;6158003;23;19908;-74
2022/09/03 07:35:45;;;;;;;;;;;;;;;;;;6185184;23;20006;-79
2022/09/03 07:38:12;;;;;;;3.40;1.40;;;;;;;;;;6158388;23;19908;-76
2022/09/03 07:40:38;;;;;;;4.10;1.33;;;;;;;;;;6159001;23;20028;-75
2022/09/03 07:43:04;;;;;;;6.05;1.60;;;;;;;;;;6184658;23;20017;-74
2022/09/03 07:45:29;;;;;;;;;;;;;;;;;;6158511;23;20313;-75
2022/09/03 07:47:55;;;;;;;6.15;1.25;;;;;;;;;;6184141;23;19908;-74
2022/09/03 07:50:20;;;;;;;7.38;1.65;;;;;;;;;;6133616;23;20005;-73
2022/09/03 07:52:46;;;;;;;4.32;1.77;;;;;;;;;;6184474;23;20009;-75
2022/09/03 07:55:12;;;;;;;5.20;1.58;;;;;;;;;;6184568;23;20001;-74
2022/09/03 07:57:38;;;;;;;5.72;1.60;;;;;;;;;;6184363;23;20063;-77
2022/09/03 08:00:06;;;;;;;4.03;1.58;;;;;;;;;;6184458;23;20028;-74
2022/09/03 08:02:37;;;;;;;4.85;1.40;;;;;;;;;;6184682;23;20087;-78
2022/09/03 08:05:02;;;;;;;3.75;1.83;;;;;;;;;;6158562;23;20017;-74
2022/09/03 08:07:29;;;;;;;5.20;1.40;;;;;;;;;;6157934;23;20001;-75
2022/09/03 08:09:54;;;;;;;4.07;1.30;;;;;;;;;;6157835;23;20017;-74
2022/09/03 08:12:20;;;;;;;3.50;1.35;;;;;;;;;;6184580;23;20385;-76
2022/09/03 08:14:45;;;;;;;2.28;1.05;;;;;;;;;;6157750;23;20433;-74
2022/09/03 08:17:12;;;;;;;5.53;1.98;;;;;;;;;;6158174;23;20007;-75
2022/09/03 08:19:39;;;;;;;3.45;1.17;;;;;;;;;;6157904;23;20024;-73
2022/09/03 08:22:04;;;;;;;8.07;1.50;;;;;;;;;;6183784;23;20001;-75
2022/09/03 08:24:30;;;;;;;4.28;1.25;;;;;;;;;;6158087;23;20103;-73
2022/09/03 08:26:55;;;;;;;2.08;0.85;;;;;;;;;;6157697;23;20055;-74
2022/09/03 08:29:21;;;;;;;3.00;0.88;;;;;;;;;;6157041;23;20099;-74
2022/09/03 08:31:46;;;;;;;3.05;0.77;;;;;;;;;;6183960;23;20128;-74
2022/09/03 08:34:13;;;;;;;2.45;1.20;;;;;;;;;;6157148;23;20330;-74
2022/09/03 08:36:40;;;;;;;2.60;0.80;;;;;;;;;;6158074;23;19997;-74
2022/09/03 08:39:09;;;;;;;4.00;1.00;;;;;;;;;;6158232;23;20013;-76
2022/09/03 08:41:37;;;;;;;3.35;1.08;;;;;;;;;;6184441;23;20080;-75
2022/09/03 08:44:04;;;;;;;4.55;1.00;;;;;;;;;;6184349;23;20088;-75
2022/09/03 08:46:35;;;;;;;2.95;1.13;;;;;;;;;;6182963;23;20040;-76
2022/09/03 08:49:01;;;;;;;3.90;0.80;;;;;;;;;;6181600;23;20075;-73
2022/09/03 08:51:26;;;;;;;1.92;0.80;;;;;;;;;;6182483;23;20032;-75
2022/09/03 08:53:54;;;;;;;1.48;0.75;;;;;;;;;;6156720;23;20453;-75
2022/09/03 08:56:21;;;;;;;5.35;1.10;;;;;;;;;;6157058;23;20017;-74
2022/09/03 08:58:46;;;;;;;6.70;1.27;;;;;;;;;;6157025;23;20017;-74
2022/09/03 09:01:30;;;;;;;2.15;0.80;;;;;;;;;;6157188;23;20036;-78
2022/09/03 09:03:56;;;;;;;1.35;0.70;;;;;;;;;;6156770;23;20357;-74
2022/09/03 09:06:30;;;;;;;2.25;0.80;;;;;;;;;;6183339;23;20001;-74
2022/09/03 09:09:02;;;;;;;2.22;0.70;;;;;;;;;;6156356;23;20023;-75
2022/09/03 09:11:40;;;;;;;2.08;0.65;;;;;;;;;;6132650;23;20013;-76
2022/09/03 09:14:19;;;;;;;4.13;0.80;;;;;;;;;;6157265;23;20326;-75
2022/09/03 09:16:45;;;;;;;2.17;0.93;;;;;;;;;;6157309;23;20349;-74
2022/09/03 09:19:39;;;;;;;4.05;0.80;;;;;;;;;;6158113;23;20001;-75
2022/09/03 09:22:09;;;;;;;1.60;0.95;;;;;;;;;;6165678;23;20052;-75
2022/09/03 09:24:36;;;;;;;1.30;0.70;;;;;;;;;;6159057;23;20001;-76
2022/09/03 09:27:03;;;;;;;2.88;0.70;;;;;;;;;;6159361;23;20067;-74
2022/09/03 09:29:30;;;;;;;1.67;0.70;;;;;;;;;;6159272;23;20444;-75
2022/09/03 09:31:56;;;;;;;1.58;0.63;;;;;;;;;;6185372;23;20012;-75
2022/09/03 09:34:21;;;;;;;2.35;0.65;;;;;;;;;;6185352;23;20298;-73
2022/09/03 09:36:47;;;;;;;2.17;0.70;;;;;;;;;;6159443;23;20091;-80
2022/09/03 09:39:16;;;;;;;2.92;0.80;;;;;;;;;;6135479;23;20039;-79
2022/09/03 09:41:43;;;;;;;1.83;0.90;;;;;;;;;;6160310;23;20024;-77
2022/09/03 09:44:16;;;;;;;2.45;0.50;;;;;;;;;;6135399;23;20000;-76
2022/09/03 09:46:42;;;;;;;0.90;0.63;;;;;;;;;;6159677;23;20067;-78
2022/09/03 09:49:17;;;;;;;3.60;0.63;;;;;;;;;;6186135;23;20377;-77
2022/09/03 09:51:43;;;;;;;1.52;0.60;;;;;;;;;;6135558;23;20043;-78
2022/09/03 09:54:12;;;;;;;1.50;0.80;;;;;;;;;;6186287;23;19997;-78
2022/09/03 09:56:38;;;;;;;2.25;0.70;;;;;;;;;;6159284;23;20092;-79
2022/09/03 09:59:08;;;;;;;4.40;0.80;;;;;;;;;;6186739;23;20043;-82
2022/09/03 10:01:35;;;;;;;1.30;0.70;;;;;;;;;;6159770;23;20099;-77
2022/09/03 10:04:19;;;;;;;1.90;0.88;;;;;;;;;;6184210;23;20433;-79
2022/09/03 10:06:55;;;;;;;3.28;1.13;;;;;;;;;;6160394;23;20775;-79
2022/09/03 10:09:31;;;;;;;1.45;0.60;;;;;;;;;;6135002;23;20020;-78
2022/09/03 10:12:03;;;;;;;2.78;0.63;;;;;;;;;;6184754;23;20059;-78
2022/09/03 10:14:34;;;;;;;2.10;0.75;;;;;;;;;;6159644;23;20104;-77
2022/09/03 10:17:10;;;;;;;1.00;0.80;;;;;;;;;;6135577;23;20015;-78
2022/09/03 10:22:43;;;;;;;3.60;0.60;;;;;;;;;;6162911;23;20013;-78
2022/09/03 10:25:08;;;;;;;1.35;0.88;;;;;;;;;;6159974;23;20004;-78
2022/09/03 10:27:35;;;;;;;2.05;0.73;;;;;;;;;;6159423;23;20108;-78
2022/09/03 10:30:00;;;;;;;3.25;1.30;;;;;;;;;;6185219;23;20341;-77
2022/09/03 10:32:48;;;;;;;5.03;1.73;;;;;;;;;;6185195;23;20013;-80
2022/09/03 10:35:13;;;;;;;3.78;1.58;;;;;;;;;;6159826;23;20041;-80
2022/09/03 10:37:43;;;;;;;2.45;0.90;;;;;;;;;;6184145;23;20444;-75
2022/09/03 10:40:15;;;;;;;1.00;0.73;;;;;;;;;;6159570;23;20012;-77
2022/09/03 10:42:46;;;;;;;4.10;1.00;;;;;;;;;;6158903;23;20325;-78
2022/09/03 10:45:12;;;;;;;1.65;0.70;;;;;;;;;;6134494;23;20009;-76
2022/09/03 10:47:37;;;;;;;2.55;0.80;;;;;;;;;;6185104;23;20001;-78
2022/09/03 10:50:22;;;;;;;2.45;0.60;;;;;;;;;;6185327;23;20020;-78
2022/09/03 10:52:56;;;;;;;2.50;1.13;;;;;;;;;;6159353;23;20087;-80
2022/09/03 10:55:22;;;;;;;0.82;0.50;;;;;;;;;;6134773;23;20012;-78
2022/09/03 10:57:50;;;;;;;4.43;0.80;;;;;;;;;;6184912;23;20402;-77
2022/09/03 11:00:17;;;;;;;1.17;0.68;;;;;;;;;;6158754;23;20019;-78
2022/09/03 11:02:46;;;;;;;2.40;0.85;;;;;;;;;;6158755;23;20005;-76
2022/09/03 11:05:30;;;;;;;1.90;0.80;;;;;;;;;;6184894;23;20013;-78
2022/09/03 11:07:58;;;;;;;1.02;0.60;;;;;;;;;;6158940;23;20021;-79
2022/09/03 11:10:25;;;;;;;2.13;0.75;;;;;;;;;;6183079;23;20037;-78
2022/09/03 11:13:01;;;;;;;0.98;0.50;;;;;;;;;;6157375;23;20008;-79
2022/09/03 11:15:28;;;;;;;3.53;0.65;;;;;;;;;;6158513;23;20013;-79
2022/09/03 11:17:55;;;;;;;1.23;0.85;;;;;;;;;;6157977;23;20001;-77
2022/09/03 11:20:22;;;;;;;1.13;0.60;;;;;;;;;;6158858;23;20023;-80
2022/09/03 11:22:47;;;;;;;1.17;0.70;;;;;;;;;;6134180;23;20008;-79
2022/09/03 11:25:14;;;;;;;0.82;0.50;;;;;;;;;;6158347;23;20084;-78
2022/09/03 11:28:12;;;;;;;1.95;0.40;;;;;;;;;;6158305;23;20001;-78
2022/09/03 11:30:57;;;;;;;1.20;0.55;;;;;;;;;;6135067;23;20075;-78
2022/09/03 11:33:24;;;;;;;1.42;0.65;;;;;;;;;;6158205;23;20013;-77
2022/09/03 11:35:59;;;;;;;1.35;0.80;;;;;;;;;;6159225;23;19997;-82
2022/09/03 11:38:27;;;;;;;1.10;0.68;;;;;;;;;;6134352;23;20009;-78
2022/09/03 11:41:03;;;;;;;1.85;0.80;;;;;;;;;;6160339;23;20124;-80
2022/09/03 11:43:30;;;;;;;4.57;0.75;;;;;;;;;;6158120;23;20036;-79
2022/09/03 11:46:11;;;;;;;2.30;0.80;;;;;;;;;;6134328;23;19997;-81
2022/09/03 11:48:36;;;;;;;1.83;0.90;;;;;;;;;;6159331;23;20020;-78
2022/09/03 11:51:02;;;;;;;2.25;0.80;;;;;;;;;;6185226;23;20001;-79
2022/09/03 11:53:34;;;;;;;3.78;1.10;;;;;;;;;;6135162;23;20009;-85
2022/09/03 11:56:01;;;;;;;1.95;1.02;;;;;;;;;;6159623;23;20400;-85
2022/09/03 11:58:31;;;;;;;2.30;1.05;;;;;;;;;;6186114;23;20005;-79
2022/09/03 12:00:57;;;;;;;2.28;0.80;;;;;;;;;;6185883;23;20043;-81
2022/09/03 12:03:43;;;;;;;2.50;0.90;;;;;;;;;;6186899;23;20005;-83
2022/09/03 12:06:18;;;;;;;2.90;0.80;;;;;;;;;;6170966;23;20016;-81
2022/09/03 12:08:50;;;;;;;1.30;0.88;;;;;;;;;;6160731;23;20445;-82
2022/09/03 12:11:16;;;;;;;1.63;0.80;;;;;;;;;;6159323;23;20103;-82
2022/09/03 12:14:01;;;;;;;2.85;1.00;;;;;;;;;;6159201;23;20079;-81
2022/09/03 12:16:38;;;;;;;3.10;1.00;;;;;;;;;;6160515;23;20008;-81
2022/09/03 12:19:13;;;;;;;4.90;1.20;;;;;;;;;;6159234;23;20098;-83
2022/09/03 12:21:39;;;;;;;1.83;1.00;;;;;;;;;;6159000;23;20023;-83
2022/09/03 12:24:06;;;;;;;3.38;0.80;;;;;;;;;;6158814;23;20393;-83
2022/09/03 12:26:37;;;;;;;2.78;0.70;;;;;;;;;;6159986;23;20036;-80
2022/09/03 12:29:04;;;;;;;2.28;0.90;;;;;;;;;;6134480;23;20461;-81
2022/09/03 12:31:31;;;;;;;1.23;0.80;;;;;;;;;;6134888;23;20001;-83
2022/09/03 12:33:58;;;;;;;2.13;0.90;;;;;;;;;;6159582;23;20100;-82
2022/09/03 12:36:24;;;;;;;3.10;0.93;;;;;;;;;;6134240;23;20337;-83
2022/09/03 12:38:49;;;;;;;2.58;1.17;;;;;;;;;;6159114;23;20100;-82
2022/09/03 12:41:28;;;;;;;1.10;0.65;;;;;;;;;;6134599;23;20443;-82
2022/09/03 12:43:54;;;;;;;2.83;1.10;;;;;;;;;;6159637;23;20024;-85
2022/09/03 12:46:24;;;;;;;1.48;0.70;;;;;;;;;;6134740;23;20001;-83
2022/09/03 12:48:53;;;;;;;5.68;1.00;;;;;;;;;;6159467;23;20019;-83
2022/09/03 12:51:19;;;;;;;2.38;1.10;;;;;;;;;;6158860;23;20047;-82
2022/09/03 12:53:45;;;;;;;4.03;2.65;;;;;;;;;;6161383;23;20015;-82
2022/09/03 12:56:12;;;;;;;3.42;1.63;;;;;;;;;;6138280;23;20044;-79
2022/09/03 12:58:42;;;;;;;2.33;1.20;;;;;;;;;;6164179;23;20013;-82
2022/09/03 13:01:08;;;;;;;2.90;1.35;;;;;;;;;;6187594;23;20017;-81
2022/09/03 13:03:40;;;;;;;5.07;1.38;;;;;;;;;;6162226;23;20017;-82
2022/09/03 13:06:06;;;;;;;2.80;1.33;;;;;;;;;;6160994;23;20013;-82
2022/09/03 13:08:33;;;;;;;2.03;1.02;;;;;;;;;;6162423;23;20000;-83
2022/09/03 13:11:01;;;;;;;6.90;1.08;;;;;;;;;;6162104;23;20048;-81
2022/09/03 13:13:30;;;;;;;7.30;1.10;;;;;;;;;;6137339;23;20053;-85
2022/09/03 13:16:02;;;;;;;4.03;1.08;;;;;;;;;;6136896;23;20322;-81
2022/09/03 13:18:46;;;;;;;3.20;0.98;;;;;;;;;;6187397;23;20607;-82
2022/09/03 13:21:18;;;;;;;6.57;1.30;;;;;;;;;;6188327;23;20009;-83
2022/09/03 13:23:44;;;;;;;2.67;1.40;;;;;;;;;;6187685;23;20441;-80
2022/09/03 13:26:16;;;;;;;3.03;1.63;;;;;;;;;;6163679;23;20003;-81
2022/09/03 13:29:07;;;;;;;4.72;1.63;;;;;;;;;;6162978;23;20451;-82
2022/09/03 13:31:45;;;;;;;3.75;0.85;;;;;;;;;;6161721;23;20013;-83
2022/09/03 13:34:15;;;;;;;1.40;0.70;;;;;;;;;;6162050;23;20013;-83
2022/09/03 13:36:44;;;;;;;3.35;1.10;;;;;;;;;;6137326;23;20013;-81
2022/09/03 13:39:29;;;;;;;4.07;1.40;;;;;;;;;;6187054;23;20433;-82
2022/09/03 13:42:01;;;;;;;5.50;1.08;;;;;;;;;;6160695;23;20100;-82
2022/09/03 13:44:31;;;;;;;3.95;0.90;;;;;;;;;;6161106;23;20032;-81
2022/09/03 13:46:58;;;;;;;3.30;1.15;;;;;;;;;;6160929;23;20424;-83
2022/09/03 13:52:41;;;;;;;4.07;1.27;;;;;;;;;;6164946;23;20059;-81
2022/09/03 13:55:25;;;;;;;5.72;1.20;;;;;;;;;;6186349;23;20091;-82
2022/09/03 13:57:57;;;;;;;1.33;0.93;;;;;;;;;;6160639;23;20341;-82
2022/09/03 14:00:25;;;;;;;4.30;0.90;;;;;;;;;;6185159;23;20039;-80
2022/09/03 14:03:09;;;;;;;5.45;1.52;;;;;;;;;;6159509;23;20429;-81
2022/09/03 14:05:37;;;;;;;6.10;1.33;;;;;;;;;;6135509;23;20016;-81
2022/09/03 14:08:07;;;;;;;5.20;1.23;;;;;;;;;;6160295;23;20091;-81
2022/09/03 14:10:38;;;;;;;2.97;0.95;;;;;;;;;;6136251;23;20020;-81
2022/09/03 14:13:07;;;;;;;5.13;1.13;;;;;;;;;;6135609;23;20020;-82
2022/09/03 14:15:32;;;;;;;7.20;1.50;;;;;;;;;;6160554;23;20064;-82
2022/09/03 14:18:01;;;;;;;4.43;1.45;;;;;;;;;;6160689;23;20449;-82
2022/09/03 14:20:31;;;;;;;4.10;1.30;;;;;;;;;;6160566;23;20436;-81
2022/09/03 14:23:15;;;;;;;8.52;1.60;;;;;;;;;;6161812;23;20017;-83
2022/09/03 14:25:46;;;;;;;4.10;1.50;;;;;;;;;;6161332;23;20020;-83
2022/09/03 14:28:32;;;;;;;7.75;1.50;;;;;;;;;;6136479;23;20017;-84
2022/09/03 14:31:07;;;;;;;5.95;1.65;;;;;;;;;;6135645;23;20464;-80
2022/09/03 14:33:37;;;;;;;4.05;1.67;;;;;;;;;;6161134;23;20036;-83
2022/09/03 14:36:06;;;;;;;3.28;1.40;;;;;;;;;;6135339;23;20465;-82
2022/09/03 14:38:38;;;;;;;3.97;1.42;;;;;;;;;;6161190;23;20330;-81
2022/09/03 14:41:19;;;;;;;3.47;1.33;;;;;;;;;;6187946;23;20017;-83
2022/09/03 14:43:45;;;;;;;4.38;1.80;;;;;;;;;;6138385;23;20009;-80
2022/09/03 14:46:20;;;;;;;4.38;1.63;;;;;;;;;;6161267;23;20008;-85
2022/09/03 14:48:51;;;;;;;9.73;1.90;;;;;;;;;;6161012;23;20019;-82
2022/09/03 14:51:17;;;;;;;5.68;2.03;;;;;;;;;;6160846;23;20468;-83
2022/09/03 14:53:53;;;;;;;7.43;2.28;;;;;;;;;;6185177;23;20036;-82
2022/09/03 14:56:18;;;;;;;5.18;2.10;;;;;;;;;;6159807;23;20040;-85
2022/09/03 14:58:59;;;;;;;7.88;2.30;;;;;;;;;;6160809;23;20013;-84
2022/09/03 15:01:25;;;;;;;4.40;2.30;;;;;;;;;;6160175;23;20063;-82
2022/09/03 15:04:00;;;;;;;7.60;2.83;;;;;;;;;;6185868;23;20012;-82
2022/09/03 15:06:44;;;;;;;6.60;2.25;;;;;;;;;;6160314;23;20066;-82
2022/09/03 15:09:10;;;;;;;9.15;2.58;;;;;;;;;;6160017;23;20013;-81
2022/09/03 15:11:42;;;;;;;5.72;1.80;;;;;;;;;;6161208;23;20084;-82
2022/09/03 15:14:09;;;;;;;9.73;2.70;;;;;;;;;;6136483;23;20441;-83